sensor_id;sensor_type;location;lat;lon;timestamp;P1;durP1;ratioP1;P2;durP2;ratioP2
46753;SDS011;32500;50.620;3.400;2023-04-23T00:00:33;101.72;;;54.58;;
46753;SDS011;32500;50.620;3.400;2023-04-23T00:03:01;99.10;;;54.70;;
46753;SDS011;32500;50.620;3.400;2023-04-23T00:05:34;99.82;;;54.42;;
46753;SDS011;32500;50.620;3.400;2023-04-23T00:08:00;101.25;;;54.65;;
46753;SDS011;32500;50.620;3.400;2023-04-23T00:10:27;99.28;;;54.78;;
46753;SDS011;32500;50.620;3.400;2023-04-23T00:12:53;98.60;;;54.65;;
46753;SDS011;32500;50.620;3.400;2023-04-23T00:15:19;100.13;;;54.90;;
46753;SDS011;32500;50.620;3.400;2023-04-23T00:17:46;99.38;;;54.42;;
46753;SDS011;32500;50.620;3.400;2023-04-23T00:20:13;98.75;;;54.47;;
46753;SDS011;32500;50.620;3.400;2023-04-23T00:22:42;98.55;;;54.22;;
46753;SDS011;32500;50.620;3.400;2023-04-23T00:25:08;99.20;;;54.70;;
46753;SDS011;32500;50.620;3.400;2023-04-23T00:27:34;99.65;;;54.45;;
46753;SDS011;32500;50.620;3.400;2023-04-23T00:30:00;99.53;;;54.75;;
46753;SDS011;32500;50.620;3.400;2023-04-23T00:32:27;98.22;;;54.20;;
46753;SDS011;32500;50.620;3.400;2023-04-23T00:34:52;99.20;;;54.38;;
46753;SDS011;32500;50.620;3.400;2023-04-23T00:37:19;99.13;;;54.80;;
46753;SDS011;32500;50.620;3.400;2023-04-23T00:39:45;98.65;;;54.70;;
46753;SDS011;32500;50.620;3.400;2023-04-23T00:42:10;98.68;;;54.38;;
46753;SDS011;32500;50.620;3.400;2023-04-23T00:44:39;120.45;;;55.53;;
46753;SDS011;32500;50.620;3.400;2023-04-23T00:47:08;107.40;;;54.97;;
46753;SDS011;32500;50.620;3.400;2023-04-23T00:49:34;106.93;;;55.17;;
46753;SDS011;32500;50.620;3.400;2023-04-23T00:52:00;106.05;;;55.10;;
46753;SDS011;32500;50.620;3.400;2023-04-23T00:54:26;108.50;;;55.15;;
46753;SDS011;32500;50.620;3.400;2023-04-23T00:56:53;107.07;;;55.15;;
46753;SDS011;32500;50.620;3.400;2023-04-23T00:59:19;107.80;;;55.15;;
46753;SDS011;32500;50.620;3.400;2023-04-23T01:01:46;105.35;;;55.10;;
46753;SDS011;32500;50.620;3.400;2023-04-23T01:04:13;105.13;;;54.83;;
46753;SDS011;32500;50.620;3.400;2023-04-23T01:06:41;105.60;;;54.88;;
46753;SDS011;32500;50.620;3.400;2023-04-23T01:09:07;103.80;;;54.90;;
46753;SDS011;32500;50.620;3.400;2023-04-23T01:11:38;102.28;;;54.63;;
46753;SDS011;32500;50.620;3.400;2023-04-23T01:14:05;102.75;;;54.80;;
46753;SDS011;32500;50.620;3.400;2023-04-23T01:16:33;103.20;;;54.60;;
46753;SDS011;32500;50.620;3.400;2023-04-23T01:18:59;103.22;;;54.70;;
46753;SDS011;32500;50.620;3.400;2023-04-23T01:21:26;103.28;;;54.88;;
46753;SDS011;32500;50.620;3.400;2023-04-23T01:23:53;101.35;;;54.45;;
46753;SDS011;32500;50.620;3.400;2023-04-23T01:26:20;101.60;;;54.70;;
46753;SDS011;32500;50.620;3.400;2023-04-23T01:28:46;102.85;;;54.75;;
46753;SDS011;32500;50.620;3.400;2023-04-23T01:31:12;101.55;;;55.10;;
46753;SDS011;32500;50.620;3.400;2023-04-23T01:33:39;102.93;;;54.88;;
46753;SDS011;32500;50.620;3.400;2023-04-23T01:36:05;101.93;;;54.67;;
46753;SDS011;32500;50.620;3.400;2023-04-23T01:38:32;101.50;;;54.75;;
46753;SDS011;32500;50.620;3.400;2023-04-23T01:41:00;100.75;;;54.47;;
46753;SDS011;32500;50.620;3.400;2023-04-23T01:43:25;101.93;;;54.53;;
46753;SDS011;32500;50.620;3.400;2023-04-23T01:45:54;101.03;;;54.50;;
46753;SDS011;32500;50.620;3.400;2023-04-23T01:48:20;101.43;;;54.75;;
46753;SDS011;32500;50.620;3.400;2023-04-23T01:50:45;100.57;;;54.85;;
46753;SDS011;32500;50.620;3.400;2023-04-23T01:53:12;100.60;;;54.40;;
46753;SDS011;32500;50.620;3.400;2023-04-23T01:55:37;101.45;;;54.92;;
46753;SDS011;32500;50.620;3.400;2023-04-23T01:58:04;100.55;;;54.55;;
46753;SDS011;32500;50.620;3.400;2023-04-23T02:00:30;100.57;;;54.30;;
46753;SDS011;32500;50.620;3.400;2023-04-23T02:02:56;100.50;;;54.13;;
46753;SDS011;32500;50.620;3.400;2023-04-23T02:05:22;100.20;;;54.03;;
46753;SDS011;32500;50.620;3.400;2023-04-23T02:07:50;100.38;;;54.42;;
46753;SDS011;32500;50.620;3.400;2023-04-23T02:10:16;99.28;;;54.35;;
46753;SDS011;32500;50.620;3.400;2023-04-23T02:12:42;99.72;;;54.05;;
46753;SDS011;32500;50.620;3.400;2023-04-23T02:15:09;99.93;;;54.58;;
46753;SDS011;32500;50.620;3.400;2023-04-23T02:17:36;101.50;;;54.45;;
46753;SDS011;32500;50.620;3.400;2023-04-23T02:20:04;99.10;;;54.10;;
46753;SDS011;32500;50.620;3.400;2023-04-23T02:22:31;100.07;;;53.85;;
46753;SDS011;32500;50.620;3.400;2023-04-23T02:24:56;99.70;;;53.95;;
46753;SDS011;32500;50.620;3.400;2023-04-23T02:27:23;98.30;;;53.97;;
46753;SDS011;32500;50.620;3.400;2023-04-23T02:29:48;98.70;;;54.03;;
46753;SDS011;32500;50.620;3.400;2023-04-23T02:32:14;98.18;;;53.85;;
46753;SDS011;32500;50.620;3.400;2023-04-23T02:34:40;98.43;;;53.95;;
46753;SDS011;32500;50.620;3.400;2023-04-23T02:37:05;99.18;;;54.47;;
46753;SDS011;32500;50.620;3.400;2023-04-23T02:39:31;98.22;;;54.17;;
46753;SDS011;32500;50.620;3.400;2023-04-23T02:41:57;97.80;;;53.85;;
46753;SDS011;32500;50.620;3.400;2023-04-23T02:44:26;99.68;;;53.92;;
46753;SDS011;32500;50.620;3.400;2023-04-23T02:46:51;97.55;;;53.78;;
46753;SDS011;32500;50.620;3.400;2023-04-23T02:49:17;99.03;;;54.00;;
46753;SDS011;32500;50.620;3.400;2023-04-23T02:51:46;97.07;;;53.50;;
46753;SDS011;32500;50.620;3.400;2023-04-23T02:54:11;98.03;;;53.90;;
46753;SDS011;32500;50.620;3.400;2023-04-23T02:56:37;97.95;;;53.78;;
46753;SDS011;32500;50.620;3.400;2023-04-23T02:59:03;96.93;;;53.75;;
46753;SDS011;32500;50.620;3.400;2023-04-23T03:01:30;98.35;;;54.22;;
46753;SDS011;32500;50.620;3.400;2023-04-23T03:03:55;97.28;;;53.67;;
46753;SDS011;32500;50.620;3.400;2023-04-23T03:06:22;97.30;;;54.00;;
46753;SDS011;32500;50.620;3.400;2023-04-23T03:08:47;97.65;;;54.13;;
46753;SDS011;32500;50.620;3.400;2023-04-23T03:11:13;96.93;;;53.25;;
46753;SDS011;32500;50.620;3.400;2023-04-23T03:13:39;96.72;;;53.55;;
46753;SDS011;32500;50.620;3.400;2023-04-23T03:16:04;97.25;;;53.53;;
46753;SDS011;32500;50.620;3.400;2023-04-23T03:18:30;96.28;;;53.72;;
46753;SDS011;32500;50.620;3.400;2023-04-23T03:20:56;95.93;;;53.58;;
46753;SDS011;32500;50.620;3.400;2023-04-23T03:23:21;96.07;;;53.22;;
46753;SDS011;32500;50.620;3.400;2023-04-23T03:25:47;96.63;;;53.65;;
46753;SDS011;32500;50.620;3.400;2023-04-23T03:28:13;96.35;;;53.85;;
46753;SDS011;32500;50.620;3.400;2023-04-23T03:30:38;97.28;;;53.67;;
46753;SDS011;32500;50.620;3.400;2023-04-23T03:33:04;96.85;;;54.10;;
46753;SDS011;32500;50.620;3.400;2023-04-23T03:35:30;96.43;;;53.40;;
46753;SDS011;32500;50.620;3.400;2023-04-23T03:37:55;96.07;;;53.67;;
46753;SDS011;32500;50.620;3.400;2023-04-23T03:40:21;95.70;;;53.40;;
46753;SDS011;32500;50.620;3.400;2023-04-23T03:42:47;95.18;;;53.42;;
46753;SDS011;32500;50.620;3.400;2023-04-23T03:45:13;96.10;;;53.55;;
46753;SDS011;32500;50.620;3.400;2023-04-23T03:47:40;95.28;;;53.28;;
46753;SDS011;32500;50.620;3.400;2023-04-23T03:50:06;96.82;;;53.53;;
46753;SDS011;32500;50.620;3.400;2023-04-23T03:52:33;95.43;;;53.28;;
46753;SDS011;32500;50.620;3.400;2023-04-23T03:54:59;97.18;;;53.63;;
46753;SDS011;32500;50.620;3.400;2023-04-23T03:57:25;95.32;;;53.08;;
46753;SDS011;32500;50.620;3.400;2023-04-23T03:59:51;95.07;;;52.78;;
46753;SDS011;32500;50.620;3.400;2023-04-23T04:02:17;94.88;;;53.22;;
46753;SDS011;32500;50.620;3.400;2023-04-23T04:04:43;94.72;;;53.20;;
46753;SDS011;32500;50.620;3.400;2023-04-23T04:07:10;94.53;;;53.42;;
46753;SDS011;32500;50.620;3.400;2023-04-23T04:09:36;95.93;;;53.40;;
46753;SDS011;32500;50.620;3.400;2023-04-23T04:12:03;95.50;;;53.40;;
46753;SDS011;32500;50.620;3.400;2023-04-23T04:14:30;95.20;;;53.60;;
46753;SDS011;32500;50.620;3.400;2023-04-23T04:16:56;96.10;;;53.42;;
46753;SDS011;32500;50.620;3.400;2023-04-23T04:19:22;94.43;;;53.13;;
46753;SDS011;32500;50.620;3.400;2023-04-23T04:21:47;95.28;;;53.72;;
46753;SDS011;32500;50.620;3.400;2023-04-23T04:24:13;95.13;;;53.25;;
46753;SDS011;32500;50.620;3.400;2023-04-23T04:26:39;94.13;;;53.33;;
46753;SDS011;32500;50.620;3.400;2023-04-23T04:29:05;94.30;;;53.15;;
46753;SDS011;32500;50.620;3.400;2023-04-23T04:31:31;95.65;;;53.55;;
46753;SDS011;32500;50.620;3.400;2023-04-23T04:33:56;94.65;;;52.97;;
46753;SDS011;32500;50.620;3.400;2023-04-23T04:36:23;93.38;;;53.08;;
46753;SDS011;32500;50.620;3.400;2023-04-23T04:38:51;94.38;;;53.58;;
46753;SDS011;32500;50.620;3.400;2023-04-23T04:41:20;94.00;;;52.85;;
46753;SDS011;32500;50.620;3.400;2023-04-23T04:43:47;94.20;;;53.10;;
46753;SDS011;32500;50.620;3.400;2023-04-23T04:46:13;93.88;;;53.08;;
46753;SDS011;32500;50.620;3.400;2023-04-23T04:48:39;93.85;;;53.30;;
46753;SDS011;32500;50.620;3.400;2023-04-23T04:51:05;93.18;;;53.03;;
46753;SDS011;32500;50.620;3.400;2023-04-23T04:53:31;93.90;;;53.50;;
46753;SDS011;32500;50.620;3.400;2023-04-23T04:55:57;92.93;;;53.10;;
46753;SDS011;32500;50.620;3.400;2023-04-23T04:58:22;93.53;;;53.10;;
46753;SDS011;32500;50.620;3.400;2023-04-23T05:00:48;93.82;;;53.30;;
46753;SDS011;32500;50.620;3.400;2023-04-23T05:03:16;94.43;;;53.50;;
46753;SDS011;32500;50.620;3.400;2023-04-23T05:05:43;92.63;;;52.75;;
46753;SDS011;32500;50.620;3.400;2023-04-23T05:08:09;94.15;;;53.22;;
46753;SDS011;32500;50.620;3.400;2023-04-23T05:10:35;93.38;;;52.85;;
46753;SDS011;32500;50.620;3.400;2023-04-23T05:13:01;92.32;;;52.65;;
46753;SDS011;32500;50.620;3.400;2023-04-23T05:15:27;92.55;;;52.70;;
46753;SDS011;32500;50.620;3.400;2023-04-23T05:17:52;93.13;;;52.83;;
46753;SDS011;32500;50.620;3.400;2023-04-23T05:20:18;92.88;;;53.17;;
46753;SDS011;32500;50.620;3.400;2023-04-23T05:22:45;93.82;;;53.10;;
46753;SDS011;32500;50.620;3.400;2023-04-23T05:25:11;92.85;;;52.75;;
46753;SDS011;32500;50.620;3.400;2023-04-23T05:27:37;93.47;;;52.78;;
46753;SDS011;32500;50.620;3.400;2023-04-23T05:30:03;93.38;;;53.13;;
46753;SDS011;32500;50.620;3.400;2023-04-23T05:32:31;92.95;;;53.00;;
46753;SDS011;32500;50.620;3.400;2023-04-23T05:34:57;91.72;;;52.53;;
46753;SDS011;32500;50.620;3.400;2023-04-23T05:37:27;92.78;;;52.92;;
46753;SDS011;32500;50.620;3.400;2023-04-23T05:39:53;93.32;;;53.00;;
46753;SDS011;32500;50.620;3.400;2023-04-23T05:42:18;92.35;;;52.80;;
46753;SDS011;32500;50.620;3.400;2023-04-23T05:44:44;92.22;;;52.95;;
46753;SDS011;32500;50.620;3.400;2023-04-23T05:47:11;91.85;;;52.47;;
46753;SDS011;32500;50.620;3.400;2023-04-23T05:49:37;92.07;;;52.85;;
46753;SDS011;32500;50.620;3.400;2023-04-23T05:52:03;92.88;;;53.20;;
46753;SDS011;32500;50.620;3.400;2023-04-23T05:54:29;92.25;;;52.45;;
46753;SDS011;32500;50.620;3.400;2023-04-23T05:56:55;91.43;;;52.58;;
46753;SDS011;32500;50.620;3.400;2023-04-23T05:59:20;91.40;;;52.58;;
46753;SDS011;32500;50.620;3.400;2023-04-23T06:01:47;92.57;;;52.58;;
46753;SDS011;32500;50.620;3.400;2023-04-23T06:04:13;92.78;;;52.67;;
46753;SDS011;32500;50.620;3.400;2023-04-23T06:06:41;92.10;;;52.45;;
46753;SDS011;32500;50.620;3.400;2023-04-23T06:09:07;91.28;;;52.47;;
46753;SDS011;32500;50.620;3.400;2023-04-23T06:11:32;92.28;;;52.33;;
46753;SDS011;32500;50.620;3.400;2023-04-23T06:14:00;93.25;;;52.33;;
46753;SDS011;32500;50.620;3.400;2023-04-23T06:16:26;93.30;;;52.83;;
46753;SDS011;32500;50.620;3.400;2023-04-23T06:18:52;95.95;;;53.03;;
46753;SDS011;32500;50.620;3.400;2023-04-23T06:21:19;93.32;;;52.80;;
46753;SDS011;32500;50.620;3.400;2023-04-23T06:23:48;95.20;;;52.88;;
46753;SDS011;32500;50.620;3.400;2023-04-23T06:26:14;93.88;;;53.00;;
46753;SDS011;32500;50.620;3.400;2023-04-23T06:28:44;97.28;;;55.20;;
46753;SDS011;32500;50.620;3.400;2023-04-23T06:31:10;102.30;;;54.30;;
46753;SDS011;32500;50.620;3.400;2023-04-23T06:33:37;105.97;;;56.35;;
46753;SDS011;32500;50.620;3.400;2023-04-23T06:36:03;103.97;;;54.92;;
46753;SDS011;32500;50.620;3.400;2023-04-23T06:38:29;105.03;;;56.05;;
46753;SDS011;32500;50.620;3.400;2023-04-23T06:40:55;102.68;;;55.22;;
46753;SDS011;32500;50.620;3.400;2023-04-23T06:43:22;107.25;;;55.60;;
46753;SDS011;32500;50.620;3.400;2023-04-23T06:45:47;100.65;;;54.92;;
46753;SDS011;32500;50.620;3.400;2023-04-23T06:48:13;97.78;;;54.47;;
46753;SDS011;32500;50.620;3.400;2023-04-23T06:50:40;102.15;;;54.20;;
46753;SDS011;32500;50.620;3.400;2023-04-23T06:53:05;102.63;;;54.28;;
46753;SDS011;32500;50.620;3.400;2023-04-23T06:55:31;96.60;;;54.03;;
46753;SDS011;32500;50.620;3.400;2023-04-23T06:57:57;104.78;;;54.55;;
46753;SDS011;32500;50.620;3.400;2023-04-23T07:00:22;103.45;;;54.80;;
46753;SDS011;32500;50.620;3.400;2023-04-23T07:02:48;95.47;;;53.85;;
46753;SDS011;32500;50.620;3.400;2023-04-23T07:05:15;99.85;;;54.33;;
46753;SDS011;32500;50.620;3.400;2023-04-23T07:07:42;98.28;;;54.22;;
46753;SDS011;32500;50.620;3.400;2023-04-23T07:10:09;98.32;;;53.83;;
46753;SDS011;32500;50.620;3.400;2023-04-23T07:12:36;96.03;;;54.10;;
46753;SDS011;32500;50.620;3.400;2023-04-23T07:15:03;102.78;;;54.58;;
46753;SDS011;32500;50.620;3.400;2023-04-23T07:17:30;100.53;;;54.63;;
46753;SDS011;32500;50.620;3.400;2023-04-23T07:19:56;98.65;;;54.38;;
46753;SDS011;32500;50.620;3.400;2023-04-23T07:22:22;103.28;;;54.22;;
46753;SDS011;32500;50.620;3.400;2023-04-23T07:24:49;100.53;;;54.13;;
46753;SDS011;32500;50.620;3.400;2023-04-23T07:27:15;98.75;;;54.05;;
46753;SDS011;32500;50.620;3.400;2023-04-23T07:29:40;100.88;;;54.58;;
46753;SDS011;32500;50.620;3.400;2023-04-23T07:32:06;101.32;;;55.13;;
46753;SDS011;32500;50.620;3.400;2023-04-23T07:34:32;100.47;;;54.75;;
46753;SDS011;32500;50.620;3.400;2023-04-23T07:36:57;99.63;;;54.58;;
46753;SDS011;32500;50.620;3.400;2023-04-23T07:39:23;99.10;;;54.63;;
46753;SDS011;32500;50.620;3.400;2023-04-23T07:41:49;101.82;;;54.92;;
46753;SDS011;32500;50.620;3.400;2023-04-23T07:44:15;99.95;;;54.55;;
46753;SDS011;32500;50.620;3.400;2023-04-23T07:46:40;100.80;;;54.70;;
46753;SDS011;32500;50.620;3.400;2023-04-23T07:49:06;99.80;;;54.67;;
46753;SDS011;32500;50.620;3.400;2023-04-23T07:51:32;101.07;;;54.55;;
46753;SDS011;32500;50.620;3.400;2023-04-23T07:53:58;101.25;;;54.95;;
46753;SDS011;32500;50.620;3.400;2023-04-23T07:56:23;100.93;;;54.42;;
46753;SDS011;32500;50.620;3.400;2023-04-23T07:58:49;98.60;;;54.47;;
46753;SDS011;32500;50.620;3.400;2023-04-23T08:01:17;101.45;;;54.90;;
46753;SDS011;32500;50.620;3.400;2023-04-23T08:03:43;100.13;;;54.65;;
46753;SDS011;32500;50.620;3.400;2023-04-23T08:06:09;98.32;;;55.03;;
46753;SDS011;32500;50.620;3.400;2023-04-23T08:08:36;100.07;;;54.30;;
46753;SDS011;32500;50.620;3.400;2023-04-23T08:11:04;98.25;;;54.63;;
46753;SDS011;32500;50.620;3.400;2023-04-23T08:13:30;102.13;;;54.72;;
46753;SDS011;32500;50.620;3.400;2023-04-23T08:15:56;98.88;;;54.85;;
46753;SDS011;32500;50.620;3.400;2023-04-23T08:18:22;97.70;;;54.63;;
46753;SDS011;32500;50.620;3.400;2023-04-23T08:20:47;103.22;;;54.53;;
46753;SDS011;32500;50.620;3.400;2023-04-23T08:23:13;98.90;;;54.15;;
46753;SDS011;32500;50.620;3.400;2023-04-23T08:25:39;97.75;;;54.25;;
46753;SDS011;32500;50.620;3.400;2023-04-23T08:28:04;99.55;;;54.53;;
46753;SDS011;32500;50.620;3.400;2023-04-23T08:30:30;100.70;;;54.88;;
46753;SDS011;32500;50.620;3.400;2023-04-23T08:32:56;99.72;;;54.65;;
46753;SDS011;32500;50.620;3.400;2023-04-23T08:35:22;102.00;;;54.42;;
46753;SDS011;32500;50.620;3.400;2023-04-23T08:37:48;100.60;;;54.53;;
46753;SDS011;32500;50.620;3.400;2023-04-23T08:40:14;99.25;;;54.05;;
46753;SDS011;32500;50.620;3.400;2023-04-23T08:42:41;96.15;;;53.58;;
46753;SDS011;32500;50.620;3.400;2023-04-23T08:45:13;100.32;;;54.20;;
46753;SDS011;32500;50.620;3.400;2023-04-23T08:47:41;95.95;;;53.45;;
46753;SDS011;32500;50.620;3.400;2023-04-23T08:50:09;99.05;;;53.92;;
46753;SDS011;32500;50.620;3.400;2023-04-23T08:52:37;97.20;;;54.30;;
46753;SDS011;32500;50.620;3.400;2023-04-23T08:55:06;99.38;;;54.25;;
46753;SDS011;32500;50.620;3.400;2023-04-23T08:57:37;94.78;;;53.17;;
46753;SDS011;32500;50.620;3.400;2023-04-23T09:00:04;97.15;;;54.15;;
46753;SDS011;32500;50.620;3.400;2023-04-23T09:02:31;97.55;;;53.88;;
46753;SDS011;32500;50.620;3.400;2023-04-23T09:04:57;96.53;;;54.35;;
46753;SDS011;32500;50.620;3.400;2023-04-23T09:07:23;95.60;;;53.90;;
46753;SDS011;32500;50.620;3.400;2023-04-23T09:09:49;97.30;;;54.00;;
46753;SDS011;32500;50.620;3.400;2023-04-23T09:12:15;95.50;;;53.53;;
46753;SDS011;32500;50.620;3.400;2023-04-23T09:14:41;96.03;;;53.60;;
46753;SDS011;32500;50.620;3.400;2023-04-23T09:17:07;97.80;;;54.28;;
46753;SDS011;32500;50.620;3.400;2023-04-23T09:19:32;98.50;;;54.13;;
46753;SDS011;32500;50.620;3.400;2023-04-23T09:21:58;94.93;;;54.08;;
46753;SDS011;32500;50.620;3.400;2023-04-23T09:24:27;95.13;;;53.40;;
46753;SDS011;32500;50.620;3.400;2023-04-23T09:26:52;96.30;;;54.05;;
46753;SDS011;32500;50.620;3.400;2023-04-23T09:29:22;97.80;;;54.20;;
46753;SDS011;32500;50.620;3.400;2023-04-23T09:31:49;96.70;;;53.60;;
46753;SDS011;32500;50.620;3.400;2023-04-23T09:34:16;96.28;;;53.58;;
46753;SDS011;32500;50.620;3.400;2023-04-23T09:36:50;97.60;;;53.65;;
46753;SDS011;32500;50.620;3.400;2023-04-23T09:39:25;97.47;;;53.70;;
46753;SDS011;32500;50.620;3.400;2023-04-23T09:41:51;97.47;;;53.95;;
46753;SDS011;32500;50.620;3.400;2023-04-23T09:44:18;96.43;;;53.63;;
46753;SDS011;32500;50.620;3.400;2023-04-23T09:46:50;99.15;;;53.88;;
46753;SDS011;32500;50.620;3.400;2023-04-23T09:49:16;96.07;;;53.42;;
46753;SDS011;32500;50.620;3.400;2023-04-23T09:51:45;95.35;;;53.65;;
46753;SDS011;32500;50.620;3.400;2023-04-23T09:54:13;96.32;;;53.60;;
46753;SDS011;32500;50.620;3.400;2023-04-23T09:56:40;97.18;;;54.05;;
46753;SDS011;32500;50.620;3.400;2023-04-23T09:59:18;95.65;;;53.33;;
46753;SDS011;32500;50.620;3.400;2023-04-23T10:01:46;94.47;;;53.42;;
46753;SDS011;32500;50.620;3.400;2023-04-23T10:04:16;94.05;;;53.40;;
46753;SDS011;32500;50.620;3.400;2023-04-23T10:06:58;94.20;;;53.28;;
46753;SDS011;32500;50.620;3.400;2023-04-23T10:09:27;94.22;;;53.58;;
46753;SDS011;32500;50.620;3.400;2023-04-23T10:11:54;94.53;;;53.50;;
46753;SDS011;32500;50.620;3.400;2023-04-23T10:14:21;94.82;;;53.22;;
46753;SDS011;32500;50.620;3.400;2023-04-23T10:16:49;94.78;;;53.33;;
46753;SDS011;32500;50.620;3.400;2023-04-23T10:19:18;96.78;;;53.33;;
46753;SDS011;32500;50.620;3.400;2023-04-23T10:21:48;96.30;;;53.47;;
46753;SDS011;32500;50.620;3.400;2023-04-23T10:26:45;94.25;;;53.40;;
46753;SDS011;32500;50.620;3.400;2023-04-23T10:29:12;93.63;;;53.08;;
46753;SDS011;32500;50.620;3.400;2023-04-23T10:31:42;93.93;;;53.47;;
46753;SDS011;32500;50.620;3.400;2023-04-23T10:34:11;95.15;;;53.08;;
46753;SDS011;32500;50.620;3.400;2023-04-23T10:36:37;95.35;;;53.33;;
46753;SDS011;32500;50.620;3.400;2023-04-23T10:39:03;93.57;;;53.10;;
46753;SDS011;32500;50.620;3.400;2023-04-23T10:41:38;95.25;;;53.38;;
46753;SDS011;32500;50.620;3.400;2023-04-23T10:44:05;93.45;;;53.05;;
46753;SDS011;32500;50.620;3.400;2023-04-23T10:46:35;94.60;;;53.05;;
46753;SDS011;32500;50.620;3.400;2023-04-23T10:49:10;94.18;;;53.17;;
46753;SDS011;32500;50.620;3.400;2023-04-23T10:51:41;93.57;;;52.92;;
46753;SDS011;32500;50.620;3.400;2023-04-23T10:54:09;93.15;;;53.05;;
46753;SDS011;32500;50.620;3.400;2023-04-23T10:56:38;94.13;;;53.03;;
46753;SDS011;32500;50.620;3.400;2023-04-23T10:59:07;92.85;;;52.92;;
46753;SDS011;32500;50.620;3.400;2023-04-23T11:01:44;92.43;;;52.63;;
46753;SDS011;32500;50.620;3.400;2023-04-23T11:07:10;93.75;;;53.17;;
46753;SDS011;32500;50.620;3.400;2023-04-23T11:12:54;93.85;;;52.92;;
46753;SDS011;32500;50.620;3.400;2023-04-23T11:14:53;93.68;;;52.75;;
46753;SDS011;32500;50.620;3.400;2023-04-23T11:17:23;93.22;;;53.17;;
46753;SDS011;32500;50.620;3.400;2023-04-23T11:20:14;93.82;;;53.13;;
46753;SDS011;32500;50.620;3.400;2023-04-23T11:22:45;93.60;;;52.97;;
46753;SDS011;32500;50.620;3.400;2023-04-23T11:25:12;93.03;;;52.88;;
46753;SDS011;32500;50.620;3.400;2023-04-23T11:27:49;92.25;;;52.67;;
46753;SDS011;32500;50.620;3.400;2023-04-23T11:30:17;93.28;;;53.00;;
46753;SDS011;32500;50.620;3.400;2023-04-23T11:32:48;92.47;;;52.80;;
46753;SDS011;32500;50.620;3.400;2023-04-23T11:35:15;94.07;;;53.05;;
46753;SDS011;32500;50.620;3.400;2023-04-23T11:37:43;92.75;;;53.08;;
46753;SDS011;32500;50.620;3.400;2023-04-23T11:40:10;91.85;;;52.67;;
46753;SDS011;32500;50.620;3.400;2023-04-23T11:42:42;92.40;;;52.95;;
46753;SDS011;32500;50.620;3.400;2023-04-23T11:47:40;91.97;;;52.80;;
46753;SDS011;32500;50.620;3.400;2023-04-23T11:50:06;95.07;;;52.72;;
46753;SDS011;32500;50.620;3.400;2023-04-23T11:52:32;93.15;;;52.95;;
46753;SDS011;32500;50.620;3.400;2023-04-23T11:55:01;92.55;;;52.65;;
46753;SDS011;32500;50.620;3.400;2023-04-23T11:57:28;95.60;;;53.22;;
46753;SDS011;32500;50.620;3.400;2023-04-23T11:59:53;93.55;;;52.60;;
46753;SDS011;32500;50.620;3.400;2023-04-23T12:02:22;93.65;;;53.05;;
46753;SDS011;32500;50.620;3.400;2023-04-23T12:04:48;93.80;;;52.63;;
46753;SDS011;32500;50.620;3.400;2023-04-23T12:07:14;92.28;;;52.80;;
46753;SDS011;32500;50.620;3.400;2023-04-23T12:09:39;93.00;;;52.85;;
46753;SDS011;32500;50.620;3.400;2023-04-23T12:12:05;94.35;;;53.05;;
46753;SDS011;32500;50.620;3.400;2023-04-23T12:14:31;92.10;;;52.50;;
46753;SDS011;32500;50.620;3.400;2023-04-23T12:16:57;92.22;;;52.80;;
46753;SDS011;32500;50.620;3.400;2023-04-23T12:19:33;92.05;;;52.88;;
46753;SDS011;32500;50.620;3.400;2023-04-23T12:22:00;92.30;;;52.83;;
46753;SDS011;32500;50.620;3.400;2023-04-23T12:24:28;91.85;;;52.72;;
46753;SDS011;32500;50.620;3.400;2023-04-23T12:26:59;91.63;;;52.33;;
46753;SDS011;32500;50.620;3.400;2023-04-23T12:29:29;92.15;;;52.75;;
46753;SDS011;32500;50.620;3.400;2023-04-23T12:31:57;91.60;;;52.42;;
46753;SDS011;32500;50.620;3.400;2023-04-23T12:34:23;93.65;;;52.88;;
46753;SDS011;32500;50.620;3.400;2023-04-23T12:36:50;93.38;;;52.90;;
46753;SDS011;32500;50.620;3.400;2023-04-23T12:39:23;93.03;;;52.72;;
46753;SDS011;32500;50.620;3.400;2023-04-23T12:41:55;92.90;;;52.85;;
46753;SDS011;32500;50.620;3.400;2023-04-23T12:44:25;93.43;;;52.90;;
46753;SDS011;32500;50.620;3.400;2023-04-23T12:46:55;92.63;;;52.55;;
46753;SDS011;32500;50.620;3.400;2023-04-23T12:49:27;91.60;;;52.45;;
46753;SDS011;32500;50.620;3.400;2023-04-23T12:51:56;92.80;;;52.75;;
46753;SDS011;32500;50.620;3.400;2023-04-23T12:54:26;94.93;;;52.92;;
46753;SDS011;32500;50.620;3.400;2023-04-23T12:56:53;91.93;;;52.78;;
46753;SDS011;32500;50.620;3.400;2023-04-23T12:59:19;91.93;;;52.47;;
46753;SDS011;32500;50.620;3.400;2023-04-23T13:01:45;91.95;;;52.65;;
46753;SDS011;32500;50.620;3.400;2023-04-23T13:04:11;92.45;;;52.63;;
46753;SDS011;32500;50.620;3.400;2023-04-23T13:06:37;92.55;;;52.83;;
46753;SDS011;32500;50.620;3.400;2023-04-23T13:09:03;92.20;;;52.40;;
46753;SDS011;32500;50.620;3.400;2023-04-23T13:11:30;92.20;;;52.80;;
46753;SDS011;32500;50.620;3.400;2023-04-23T13:13:56;91.53;;;52.67;;
46753;SDS011;32500;50.620;3.400;2023-04-23T13:16:22;91.82;;;52.47;;
46753;SDS011;32500;50.620;3.400;2023-04-23T13:18:48;93.38;;;52.72;;
46753;SDS011;32500;50.620;3.400;2023-04-23T13:21:15;93.65;;;52.80;;
46753;SDS011;32500;50.620;3.400;2023-04-23T13:23:41;92.20;;;52.53;;
46753;SDS011;32500;50.620;3.400;2023-04-23T13:26:07;92.93;;;52.80;;
46753;SDS011;32500;50.620;3.400;2023-04-23T13:28:33;93.22;;;52.90;;
46753;SDS011;32500;50.620;3.400;2023-04-23T13:30:59;92.35;;;52.45;;
46753;SDS011;32500;50.620;3.400;2023-04-23T13:33:25;91.80;;;52.33;;
46753;SDS011;32500;50.620;3.400;2023-04-23T13:35:51;92.28;;;52.55;;
46753;SDS011;32500;50.620;3.400;2023-04-23T13:38:18;92.18;;;52.60;;
46753;SDS011;32500;50.620;3.400;2023-04-23T13:40:44;91.90;;;52.75;;
46753;SDS011;32500;50.620;3.400;2023-04-23T13:43:09;93.15;;;52.97;;
46753;SDS011;32500;50.620;3.400;2023-04-23T13:45:35;92.13;;;52.28;;
46753;SDS011;32500;50.620;3.400;2023-04-23T13:48:01;91.38;;;52.33;;
46753;SDS011;32500;50.620;3.400;2023-04-23T13:50:27;92.28;;;52.45;;
46753;SDS011;32500;50.620;3.400;2023-04-23T13:52:53;93.03;;;52.58;;
46753;SDS011;32500;50.620;3.400;2023-04-23T13:55:18;91.85;;;52.83;;
46753;SDS011;32500;50.620;3.400;2023-04-23T13:57:44;90.88;;;51.97;;
46753;SDS011;32500;50.620;3.400;2023-04-23T14:00:10;92.28;;;52.50;;
46753;SDS011;32500;50.620;3.400;2023-04-23T14:02:37;92.53;;;52.35;;
46753;SDS011;32500;50.620;3.400;2023-04-23T14:05:02;91.90;;;52.78;;
46753;SDS011;32500;50.620;3.400;2023-04-23T14:07:30;92.57;;;52.65;;
46753;SDS011;32500;50.620;3.400;2023-04-23T14:09:56;91.53;;;52.63;;
46753;SDS011;32500;50.620;3.400;2023-04-23T14:12:22;92.90;;;52.78;;
46753;SDS011;32500;50.620;3.400;2023-04-23T14:14:49;91.55;;;52.40;;
46753;SDS011;32500;50.620;3.400;2023-04-23T14:17:15;92.20;;;52.28;;
46753;SDS011;32500;50.620;3.400;2023-04-23T14:19:40;91.18;;;52.25;;
46753;SDS011;32500;50.620;3.400;2023-04-23T14:22:06;92.20;;;52.45;;
46753;SDS011;32500;50.620;3.400;2023-04-23T14:24:33;94.95;;;52.35;;
46753;SDS011;32500;50.620;3.400;2023-04-23T14:27:03;94.07;;;52.47;;